createdAt,value
2018-07-20T04:47:02.015Z,2.70
2018-07-20T04:49:48.896Z,4.80
2018-07-20T04:52:36.601Z,3.00
2018-07-20T04:55:25.133Z,3.30
2018-07-20T04:58:13.879Z,4.57
2018-07-20T05:01:01.197Z,4.90
2018-07-20T05:03:49.192Z,3.33
2018-07-20T05:06:36.948Z,4.17
2018-07-20T05:09:25.278Z,3.37
2018-07-20T05:12:13.718Z,3.47
2018-07-20T05:15:02.022Z,3.57
2018-07-20T05:20:42.599Z,3.67
2018-07-20T05:23:31.124Z,3.17
2018-07-20T05:26:19.343Z,6.73
2018-07-20T05:29:07.243Z,4.73
2018-07-20T05:45:45.716Z,3.85
2018-07-20T05:48:39.407Z,5.22
2018-07-20T05:51:26.869Z,4.25
2018-07-20T05:54:15.203Z,6.50
2018-07-20T05:57:03.253Z,4.87
2018-07-20T05:59:51.881Z,8.13
2018-07-20T06:05:30.787Z,4.27
2018-07-20T06:08:42.884Z,4.97
2018-07-20T06:18:14.242Z,4.80
2018-07-20T06:21:02.230Z,4.20
2018-07-20T06:23:50.279Z,4.15
2018-07-20T06:26:38.029Z,4.47
2018-07-20T06:29:25.913Z,4.33
2018-07-20T06:32:14.242Z,5.27
2018-07-20T06:35:02.197Z,4.47
2018-07-20T06:37:49.757Z,3.67
2018-07-20T06:40:37.898Z,5.20
2018-07-20T06:43:25.986Z,4.43
2018-07-20T06:46:15.739Z,3.83
2018-07-20T06:49:05.845Z,7.37
2018-07-20T06:51:53.532Z,4.42
2018-07-20T06:54:41.550Z,5.23
2018-07-20T06:57:29.530Z,5.03
2018-07-20T07:00:17.528Z,4.50
2018-07-20T07:03:06.162Z,4.00
2018-07-20T07:05:53.981Z,4.77
2018-07-20T07:08:41.424Z,4.62
2018-07-20T07:11:29.465Z,4.35
2018-07-20T07:14:17.537Z,3.40
2018-07-20T07:17:05.822Z,4.67
2018-07-20T07:53:10.352Z,4.30
2018-07-20T07:55:59.284Z,3.98
2018-07-20T07:58:47.620Z,3.80
2018-07-20T08:01:37.471Z,3.98
2018-07-20T08:04:27.128Z,3.33
2018-07-20T08:07:17.611Z,3.83
2018-07-20T08:10:07.794Z,3.33
2018-07-20T08:13:08.357Z,4.08
2018-07-20T08:15:52.621Z,5.00
2018-07-20T08:18:29.654Z,4.08
2018-07-20T08:21:07.530Z,2.90
2018-07-20T08:23:45.012Z,2.98
2018-07-20T08:27:48.659Z,3.22
2018-07-20T08:30:27.804Z,3.98
2018-07-20T08:33:05.847Z,3.75
2018-07-20T08:35:43.677Z,3.98
2018-07-20T08:38:21.077Z,4.03
2018-07-20T08:40:58.571Z,4.15
2018-07-20T08:43:36.806Z,3.62
2018-07-20T08:46:14.700Z,3.47
2018-07-20T08:48:51.858Z,2.60
2018-07-20T08:51:29.641Z,4.20
2018-07-20T08:54:08.012Z,7.85
2018-07-20T08:56:44.099Z,3.17
2018-07-20T08:59:22.579Z,2.75
2018-07-20T09:02:03.173Z,3.00
2018-07-20T09:04:39.296Z,3.10
2018-07-20T09:07:15.615Z,2.60
2018-07-20T09:09:51.332Z,6.10
2018-07-20T09:12:27.811Z,3.22
2018-07-20T09:15:03.922Z,4.08
2018-07-20T09:17:39.888Z,4.85
2018-07-20T09:20:15.493Z,6.97
2018-07-20T09:22:52.015Z,7.58
2018-07-20T09:25:28.342Z,5.47
2018-07-20T09:28:04.127Z,5.65
2018-07-20T09:30:41.227Z,4.75
2018-07-20T09:33:17.029Z,5.30
2018-07-20T09:35:54.219Z,4.70
2018-07-20T09:38:30.380Z,6.80
2018-07-20T09:41:06.773Z,3.85
2018-07-20T09:50:55.084Z,3.93
2018-07-20T09:53:59.507Z,4.00
2018-07-20T09:56:50.449Z,3.07
2018-07-20T09:59:26.871Z,4.03
2018-07-20T10:02:03.071Z,2.30
2018-07-20T10:04:39.225Z,3.23
2018-07-20T10:07:16.420Z,2.80
2018-07-20T10:09:52.340Z,4.83
2018-07-20T10:12:28.173Z,3.00
2018-07-20T10:15:05.245Z,3.90
2018-07-20T10:17:49.253Z,3.57
2018-07-20T10:20:32.421Z,3.63
2018-07-20T10:23:15.694Z,5.55
2018-07-20T10:26:00.069Z,3.92
2018-07-20T10:28:43.861Z,4.87
2018-07-20T10:31:28.570Z,3.17
2018-07-20T10:34:12.629Z,2.58
2018-07-20T10:36:55.691Z,1.55
2018-07-20T10:39:40.506Z,2.72
2018-07-20T10:42:25.164Z,2.98
2018-07-20T10:45:08.874Z,2.17
2018-07-20T10:47:51.736Z,2.45
2018-07-20T10:50:36.828Z,4.22
2018-07-20T10:53:20.003Z,2.37
2018-07-20T10:56:02.690Z,2.72
2018-07-20T10:58:45.965Z,3.27
2018-07-20T11:01:30.059Z,2.58
2018-07-20T11:04:13.396Z,2.72
2018-07-20T11:06:56.245Z,3.25
2018-07-20T11:09:41.213Z,2.55
2018-07-20T11:12:27.883Z,2.75
2018-07-20T11:15:11.207Z,3.33
2018-07-20T11:17:55.034Z,2.12
2018-07-20T11:20:43.909Z,3.35
2018-07-20T11:23:27.107Z,3.25
2018-07-20T11:26:10.628Z,3.20
2018-07-20T11:28:54.066Z,2.05
2018-07-20T11:31:39.972Z,3.70
2018-07-20T11:34:23.468Z,2.70
2018-07-20T11:37:08.364Z,2.47
2018-07-20T11:39:53.453Z,2.52
2018-07-20T11:42:39.359Z,2.02
2018-07-20T11:45:16.475Z,2.12
2018-07-20T11:47:53.535Z,1.72
2018-07-20T11:50:31.207Z,1.72
2018-07-20T11:53:08.057Z,3.83
2018-07-20T11:55:45.476Z,3.17
2018-07-20T11:58:22.976Z,3.72
2018-07-20T12:01:00.726Z,3.17
2018-07-20T12:03:37.126Z,4.78
2018-07-20T12:06:14.243Z,6.20
2018-07-20T12:08:51.498Z,2.95
2018-07-20T12:11:27.580Z,1.63
2018-07-20T12:14:04.291Z,2.90
2018-07-20T12:16:42.001Z,2.83
2018-07-20T12:19:18.245Z,2.30
2018-07-20T12:21:54.672Z,2.67
2018-07-20T12:24:31.008Z,3.20
2018-07-20T12:27:07.400Z,4.03
2018-07-20T12:29:44.752Z,3.10
2018-07-20T12:32:20.796Z,4.13
2018-07-20T12:35:01.351Z,3.83
2018-07-20T12:37:44.135Z,4.57
2018-07-20T12:40:26.557Z,1.53
2018-07-20T12:43:12.646Z,6.23
2018-07-20T12:45:53.558Z,1.80
2018-07-20T12:48:33.610Z,2.73
2018-07-20T12:51:16.523Z,2.67
2018-07-20T12:53:53.591Z,5.30
2018-07-20T12:56:34.527Z,3.43
2018-07-20T12:59:18.064Z,3.30
2018-07-20T13:02:02.444Z,4.67
2018-07-20T13:04:47.781Z,5.27
2018-07-20T13:07:36.896Z,4.27
2018-07-20T13:10:19.896Z,4.73
2018-07-20T13:13:02.997Z,4.10
2018-07-20T13:15:46.858Z,4.12
2018-07-20T13:18:30.321Z,3.90
2018-07-20T13:21:13.997Z,3.23
2018-07-20T13:23:57.774Z,3.17
2018-07-20T13:26:45.724Z,4.80
2018-07-20T13:29:31.025Z,3.80
2018-07-20T13:32:15.561Z,4.63
2018-07-20T13:35:00.773Z,5.67
2018-07-20T13:37:43.579Z,6.00
2018-07-20T13:40:28.897Z,3.87
2018-07-20T13:43:13.209Z,3.93
2018-07-20T13:45:58.088Z,5.30
2018-07-20T13:48:42.713Z,5.57
2018-07-20T13:51:26.191Z,4.70
2018-07-20T13:54:09.355Z,5.90
2018-07-20T13:56:56.442Z,3.97
2018-07-20T13:59:42.149Z,5.00
2018-07-20T14:02:25.865Z,4.40
2018-07-20T14:05:10.068Z,5.90
2018-07-20T14:07:56.319Z,3.93
2018-07-20T14:10:40.200Z,3.97
2018-07-20T14:13:24.332Z,6.80
2018-07-20T14:16:09.447Z,7.07
2018-07-20T14:18:52.392Z,8.43
2018-07-20T14:21:37.080Z,5.67
2018-07-20T14:24:21.500Z,5.77
2018-07-20T14:27:05.179Z,5.43
2018-07-20T14:29:48.824Z,4.50
2018-07-20T14:32:33.544Z,6.43
2018-07-20T14:35:17.960Z,6.03
2018-07-20T14:38:02.485Z,4.80
2018-07-20T14:40:47.607Z,5.17
2018-07-20T14:43:31.833Z,4.47
2018-07-20T14:46:15.679Z,5.63
2018-07-20T14:48:59.783Z,5.67
2018-07-20T14:51:42.826Z,7.37
2018-07-20T14:54:26.355Z,5.23
2018-07-20T14:57:10.045Z,5.40
2018-07-20T14:59:53.550Z,5.07
2018-07-20T15:02:38.529Z,5.57
2018-07-20T15:05:21.530Z,4.93
2018-07-20T15:08:04.971Z,5.37
2018-07-20T15:10:48.346Z,6.33
2018-07-20T15:13:32.108Z,4.00
2018-07-20T15:16:16.363Z,3.73
2018-07-20T15:19:00.589Z,6.13
2018-07-20T15:21:45.827Z,3.40
2018-07-20T15:24:29.438Z,3.43
2018-07-20T15:27:15.739Z,5.87
2018-07-20T15:30:00.261Z,3.00
2018-07-20T15:32:46.313Z,2.77
2018-07-20T15:35:33.002Z,4.27
2018-07-20T15:38:18.745Z,3.00
2018-07-20T15:41:04.227Z,3.43
2018-07-20T15:43:48.601Z,5.67
2018-07-20T15:46:31.354Z,2.27
2018-07-20T15:49:16.449Z,3.30
2018-07-20T15:54:46.194Z,6.50
2018-07-20T15:57:29.807Z,4.33
2018-07-20T16:00:13.866Z,3.43
2018-07-20T16:02:58.258Z,6.73
2018-07-20T16:05:42.655Z,4.13
2018-07-20T16:08:27.471Z,6.20
2018-07-20T16:11:11.062Z,3.63
2018-07-20T16:13:55.464Z,3.20
2018-07-20T16:16:38.181Z,2.70
2018-07-20T16:19:21.503Z,3.80
2018-07-20T16:22:04.212Z,2.73
2018-07-20T16:24:48.223Z,3.67
2018-07-20T16:27:31.725Z,4.57
2018-07-20T16:30:16.252Z,6.73
2018-07-20T16:32:59.126Z,8.27
2018-07-20T16:35:41.293Z,6.03
2018-07-20T16:38:25.144Z,6.80
2018-07-20T16:41:09.689Z,9.07
2018-07-20T16:43:53.269Z,4.97
2018-07-20T16:46:35.820Z,7.57
2018-07-20T16:49:18.332Z,4.30
2018-07-20T16:52:01.261Z,4.20
2018-07-20T16:54:44.788Z,4.93
2018-07-20T16:57:28.257Z,4.10
2018-07-20T17:00:13.264Z,5.10
2018-07-20T17:02:57.481Z,7.70
2018-07-20T17:05:40.105Z,3.40
2018-07-20T17:08:23.183Z,3.07
2018-07-20T17:11:07.355Z,4.47
2018-07-20T17:13:51.414Z,4.43
2018-07-20T17:16:34.992Z,4.27
2018-07-20T17:19:18.298Z,3.93
2018-07-20T17:22:01.013Z,4.40
2018-07-20T17:24:45.981Z,3.63
2018-07-20T17:27:30.218Z,4.53
2018-07-20T17:30:14.017Z,5.70
2018-07-20T17:32:57.533Z,4.43
2018-07-20T17:35:40.930Z,2.43
2018-07-20T17:38:25.365Z,2.37
2018-07-20T17:41:06.664Z,16.40
2018-07-20T17:43:42.910Z,3.07
2018-07-20T17:46:19.242Z,4.13
2018-07-20T17:48:56.345Z,3.20
2018-07-20T17:51:32.045Z,3.00
2018-07-20T17:54:08.261Z,2.80
2018-07-20T17:56:45.639Z,3.83
2018-07-20T17:59:22.322Z,3.87
2018-07-20T18:01:59.843Z,4.37
2018-07-20T18:04:36.595Z,2.97
2018-07-20T18:07:13.287Z,4.00
2018-07-20T18:09:49.671Z,5.80
2018-07-20T18:12:25.722Z,4.47
2018-07-20T18:15:02.912Z,5.00
2018-07-20T18:17:39.898Z,4.50
2018-07-20T18:20:18.155Z,4.00
2018-07-20T18:22:55.405Z,3.13
2018-07-20T18:25:32.063Z,3.10
2018-07-20T18:28:09.164Z,4.67
2018-07-20T18:30:46.487Z,3.40
2018-07-20T18:33:23.600Z,4.43
2018-07-20T18:36:00.241Z,3.27
2018-07-20T18:38:37.184Z,5.30
2018-07-20T18:41:14.242Z,5.47
2018-07-20T18:43:51.922Z,5.00
2018-07-20T18:46:28.808Z,4.13
2018-07-20T18:49:05.859Z,2.73
2018-07-20T18:51:43.022Z,4.93
2018-07-20T18:54:20.631Z,4.97
2018-07-20T18:56:58.330Z,4.70
2018-07-20T18:59:35.890Z,2.90
2018-07-20T19:02:13.698Z,3.03
2018-07-20T19:04:51.291Z,4.17
2018-07-20T19:07:28.461Z,3.50
2018-07-20T19:10:05.165Z,4.37
2018-07-20T19:12:41.899Z,2.73
2018-07-20T19:15:18.694Z,3.97
2018-07-20T19:17:55.619Z,3.90
2018-07-20T19:20:32.273Z,5.10
2018-07-20T19:23:09.209Z,5.73
2018-07-20T19:25:46.343Z,5.33
2018-07-20T19:28:23.506Z,6.13
2018-07-20T19:31:01.043Z,7.07
2018-07-20T19:33:38.639Z,8.23
2018-07-20T19:36:15.456Z,9.37
2018-07-20T19:38:52.006Z,8.77
2018-07-20T19:41:28.582Z,11.33
2018-07-20T19:44:05.941Z,7.27
2018-07-20T19:46:41.841Z,7.20
2018-07-20T19:49:18.638Z,8.97
2018-07-20T19:51:55.402Z,9.87
2018-07-20T19:54:32.195Z,9.60
2018-07-20T19:57:09.275Z,8.83
2018-07-20T19:59:45.363Z,11.10
2018-07-20T20:02:21.443Z,8.30
2018-07-20T20:04:57.263Z,7.93
2018-07-20T20:07:33.688Z,11.48
2018-07-20T20:10:10.102Z,10.00
2018-07-20T20:12:46.481Z,7.37
2018-07-20T20:15:22.894Z,7.10
2018-07-20T20:18:00.227Z,9.27
2018-07-20T20:20:36.973Z,9.63
2018-07-20T20:23:14.196Z,10.10
2018-07-20T20:25:50.720Z,10.47
2018-07-20T20:28:27.527Z,11.30
2018-07-20T20:31:05.272Z,8.67
2018-07-20T20:33:42.377Z,8.77
2018-07-20T20:36:19.568Z,9.37
2018-07-20T20:38:56.648Z,7.90
2018-07-20T20:41:33.135Z,12.20
2018-07-20T20:44:09.892Z,9.13
2018-07-20T20:46:47.036Z,8.33
2018-07-20T20:49:24.472Z,7.73
2018-07-20T20:52:01.916Z,7.57
2018-07-20T20:54:39.796Z,8.90
2018-07-20T20:57:17.068Z,7.10
2018-07-20T20:59:53.686Z,8.00
2018-07-20T21:02:31.471Z,8.40
2018-07-20T21:05:09.527Z,11.67
2018-07-20T21:07:46.325Z,9.70
2018-07-20T21:10:24.097Z,8.43
2018-07-20T21:13:01.345Z,7.80
2018-07-20T21:15:38.768Z,9.90
2018-07-20T21:18:15.249Z,10.57
2018-07-20T21:20:52.041Z,8.87
2018-07-20T21:23:28.681Z,7.40
2018-07-20T21:26:06.589Z,11.00
2018-07-20T21:28:44.486Z,10.10
2018-07-20T21:31:23.043Z,10.37
2018-07-20T21:34:00.565Z,10.37
2018-07-20T21:36:38.494Z,11.90
2018-07-20T21:39:16.900Z,10.83
2018-07-20T21:41:53.633Z,11.63
2018-07-20T21:44:30.655Z,8.93
2018-07-20T21:47:08.014Z,11.03
2018-07-20T21:49:45.490Z,10.73
2018-07-20T21:52:23.024Z,7.53
2018-07-20T21:54:59.583Z,7.10
2018-07-20T21:57:36.688Z,7.93
2018-07-20T22:00:18.573Z,6.47
2018-07-20T22:02:56.483Z,6.63
2018-07-20T22:05:34.330Z,10.20
2018-07-20T22:08:11.995Z,7.63
2018-07-20T22:10:48.729Z,9.60
2018-07-20T22:13:25.503Z,9.03
2018-07-20T22:16:03.390Z,7.77
2018-07-20T22:18:40.406Z,6.93
2018-07-20T22:21:18.188Z,8.03
2018-07-20T22:23:55.259Z,9.93
2018-07-20T22:26:32.489Z,7.30
2018-07-20T22:29:09.907Z,7.97
2018-07-20T22:31:47.381Z,7.97
2018-07-20T22:34:24.191Z,8.40
2018-07-20T22:37:01.838Z,7.60
2018-07-20T22:39:38.617Z,7.07
2018-07-20T22:42:16.248Z,7.63
2018-07-20T22:44:53.620Z,6.63
2018-07-20T22:47:30.699Z,8.50
2018-07-20T22:50:07.090Z,8.07
2018-07-20T22:52:45.306Z,5.90
2018-07-20T22:55:22.233Z,5.23
2018-07-20T22:57:59.040Z,5.97
2018-07-20T23:00:36.492Z,6.67
2018-07-20T23:03:13.919Z,8.13
2018-07-20T23:05:50.529Z,4.70
2018-07-20T23:08:27.575Z,6.90
2018-07-20T23:11:05.199Z,6.43
2018-07-20T23:13:43.299Z,8.00
2018-07-20T23:16:20.714Z,5.10
2018-07-20T23:18:57.437Z,5.97
2018-07-20T23:21:34.686Z,6.37
2018-07-20T23:24:11.451Z,6.53
2018-07-20T23:26:48.743Z,7.47
2018-07-20T23:29:25.737Z,7.10
2018-07-20T23:32:02.248Z,6.93
2018-07-20T23:34:39.632Z,5.60
2018-07-20T23:37:16.989Z,5.17
2018-07-20T23:39:53.490Z,8.97
2018-07-20T23:42:30.907Z,7.53
2018-07-20T23:45:08.366Z,6.17
2018-07-20T23:47:45.055Z,9.07
2018-07-20T23:50:22.228Z,5.80
2018-07-20T23:52:59.512Z,8.63
2018-07-20T23:55:36.748Z,5.53
2018-07-20T23:58:13.683Z,6.33
